createdAt,value
2023-04-25T00:01:41.981Z,10.70
2023-04-25T00:04:12.681Z,11.37
2023-04-25T00:06:41.258Z,11.13
2023-04-25T00:09:11.159Z,10.80
2023-04-25T00:11:39.334Z,11.23
2023-04-25T00:14:07.910Z,12.03
2023-04-25T00:16:36.629Z,11.13
2023-04-25T00:19:05.350Z,11.07
2023-04-25T00:21:34.592Z,12.10
2023-04-25T00:24:02.521Z,10.73
2023-04-25T00:26:31.720Z,11.57
2023-04-25T00:28:59.700Z,10.90
2023-04-25T00:31:27.554Z,11.50
2023-04-25T00:33:55.595Z,12.43
2023-04-25T00:36:23.775Z,10.80
2023-04-25T00:38:52.939Z,12.07
2023-04-25T00:41:21.754Z,11.70
2023-04-25T00:43:50.782Z,12.50
2023-04-25T00:46:18.995Z,11.60
2023-04-25T00:48:46.887Z,12.67
2023-04-25T00:51:17.966Z,12.20
2023-04-25T00:53:46.966Z,13.07
2023-04-25T00:56:16.440Z,12.57
2023-04-25T00:58:44.459Z,13.03
2023-04-25T01:01:13.115Z,12.80
2023-04-25T01:03:42.780Z,12.60
2023-04-25T01:06:12.067Z,12.50
2023-04-25T01:08:40.964Z,12.33
2023-04-25T01:11:08.997Z,12.97
2023-04-25T01:13:38.267Z,12.67
2023-04-25T01:16:06.769Z,13.47
2023-04-25T01:18:35.088Z,12.27
2023-04-25T01:21:11.672Z,13.23
2023-04-25T01:23:41.064Z,13.63
2023-04-25T01:26:10.639Z,12.60
2023-04-25T01:28:38.924Z,12.43
2023-04-25T01:31:07.119Z,12.13
2023-04-25T01:33:35.051Z,11.63
2023-04-25T01:36:03.209Z,11.37
2023-04-25T01:38:32.642Z,10.47
2023-04-25T01:41:01.118Z,11.00
2023-04-25T01:43:28.938Z,11.33
2023-04-25T01:45:57.488Z,11.07
2023-04-25T01:48:25.336Z,10.73
2023-04-25T01:50:53.287Z,10.40
2023-04-25T01:53:21.169Z,10.53
2023-04-25T01:55:50.414Z,11.07
2023-04-25T01:58:18.334Z,11.33
2023-04-25T02:00:46.180Z,11.90
2023-04-25T02:03:14.285Z,11.03
2023-04-25T02:05:42.455Z,10.10
2023-04-25T02:08:11.822Z,10.97
2023-04-25T02:10:39.845Z,10.53
2023-04-25T02:13:09.164Z,11.37
2023-04-25T02:15:37.178Z,11.40
2023-04-25T02:18:05.264Z,11.43
2023-04-25T02:20:33.168Z,10.70
2023-04-25T02:23:01.134Z,10.37
2023-04-25T02:25:29.492Z,9.87
2023-04-25T02:27:57.413Z,10.77
2023-04-25T02:30:26.768Z,9.93
2023-04-25T02:32:55.161Z,10.50
2023-04-25T02:35:23.228Z,9.37
2023-04-25T02:37:51.202Z,9.63
2023-04-25T02:40:19.042Z,9.20
2023-04-25T02:42:47.814Z,9.77
2023-04-25T02:45:15.855Z,10.00
2023-04-25T02:47:45.740Z,8.27
2023-04-25T02:50:13.656Z,8.57
2023-04-25T02:52:41.678Z,9.13
2023-04-25T02:55:11.879Z,9.20
2023-04-25T02:57:39.742Z,8.50
2023-04-25T03:00:09.072Z,8.97
2023-04-25T03:02:37.010Z,8.77
2023-04-25T03:05:07.026Z,9.13
2023-04-25T03:07:35.010Z,8.30
2023-04-25T03:10:03.308Z,8.30
2023-04-25T03:12:31.303Z,8.53
2023-04-25T03:14:59.216Z,9.37
2023-04-25T03:17:27.129Z,8.50
2023-04-25T03:19:55.089Z,7.93
2023-04-25T03:22:24.732Z,8.33
2023-04-25T03:24:52.897Z,8.03
2023-04-25T03:27:21.156Z,8.60
2023-04-25T03:29:48.973Z,7.90
2023-04-25T03:32:17.029Z,8.40
2023-04-25T03:34:44.976Z,8.87
2023-04-25T03:37:12.855Z,7.73
2023-04-25T03:39:42.166Z,7.67
2023-04-25T03:42:10.065Z,7.57
2023-04-25T03:44:38.010Z,8.00
2023-04-25T03:47:06.212Z,7.70
2023-04-25T03:49:35.099Z,7.83
2023-04-25T03:52:03.070Z,7.37
2023-04-25T03:54:30.989Z,7.63
2023-04-25T03:57:00.369Z,7.27
2023-04-25T03:59:28.274Z,8.30
2023-04-25T04:01:56.425Z,7.47
2023-04-25T04:04:24.440Z,7.33
2023-04-25T04:06:53.509Z,6.20
2023-04-25T04:09:21.621Z,7.20
2023-04-25T04:11:49.400Z,7.23
2023-04-25T04:14:18.724Z,7.00
2023-04-25T04:16:46.919Z,6.47
2023-04-25T04:19:14.758Z,6.77
2023-04-25T04:21:42.691Z,6.60
2023-04-25T04:24:11.435Z,6.60
2023-04-25T04:26:39.793Z,6.40
2023-04-25T04:29:08.124Z,7.13
2023-04-25T04:31:37.747Z,6.60
2023-04-25T04:34:05.853Z,6.63
2023-04-25T04:36:33.792Z,6.70
2023-04-25T04:39:01.700Z,6.77
2023-04-25T04:41:29.511Z,6.30
2023-04-25T04:43:58.065Z,6.47
2023-04-25T04:46:26.424Z,6.30
2023-04-25T04:48:57.547Z,6.93
2023-04-25T04:51:25.457Z,6.60
2023-04-25T04:53:53.523Z,7.03
2023-04-25T04:56:24.379Z,6.53
2023-04-25T04:58:52.269Z,6.50
2023-04-25T05:01:20.348Z,6.73
2023-04-25T05:03:48.718Z,6.87
2023-04-25T05:06:18.594Z,6.93
2023-04-25T05:08:46.570Z,7.30
2023-04-25T05:11:14.412Z,7.20
2023-04-25T05:13:42.327Z,6.93
2023-04-25T05:16:10.337Z,6.83
2023-04-25T05:18:38.245Z,7.03
2023-04-25T05:21:06.660Z,7.47
2023-04-25T05:23:35.919Z,6.90
2023-04-25T05:26:03.934Z,7.67
2023-04-25T05:28:31.816Z,7.00
2023-04-25T05:30:59.713Z,6.87
2023-04-25T05:33:27.526Z,7.30
2023-04-25T05:35:55.504Z,6.87
2023-04-25T05:38:23.371Z,6.60
2023-04-25T05:40:52.502Z,7.07
2023-04-25T05:43:20.492Z,7.17
2023-04-25T05:45:48.335Z,7.40
2023-04-25T05:48:16.381Z,6.87
2023-04-25T05:50:44.304Z,7.03
2023-04-25T05:53:12.397Z,6.63
2023-04-25T05:55:40.308Z,7.37
2023-04-25T05:58:09.524Z,7.57
2023-04-25T06:00:37.600Z,7.70
2023-04-25T06:03:06.078Z,7.23
2023-04-25T06:05:34.269Z,8.10
2023-04-25T06:08:02.232Z,7.60
2023-04-25T06:10:30.197Z,7.50
2023-04-25T06:12:59.321Z,7.50
2023-04-25T06:15:29.122Z,7.70
2023-04-25T06:17:57.845Z,7.53
2023-04-25T06:20:25.928Z,7.50
2023-04-25T06:22:53.967Z,7.80
2023-04-25T06:25:22.381Z,8.00
2023-04-25T06:27:50.350Z,7.80
2023-04-25T06:30:19.476Z,8.07
2023-04-25T06:32:48.829Z,8.03
2023-04-25T06:35:17.076Z,8.67
2023-04-25T06:37:45.046Z,8.03
2023-04-25T06:40:13.162Z,7.67
2023-04-25T06:42:41.089Z,7.67
2023-04-25T06:45:10.089Z,6.13
2023-04-25T06:47:38.016Z,6.80
2023-04-25T06:50:08.587Z,5.83
2023-04-25T06:52:36.456Z,5.40
2023-04-25T06:55:06.005Z,5.80
2023-04-25T06:57:34.049Z,6.50
2023-04-25T07:00:02.608Z,6.13
2023-04-25T07:02:30.811Z,6.33
2023-04-25T07:05:01.158Z,6.37
2023-04-25T07:07:31.388Z,6.03
2023-04-25T07:09:59.190Z,5.70
2023-04-25T07:12:27.144Z,5.50
2023-04-25T07:14:55.327Z,5.13
2023-04-25T07:17:24.327Z,5.07
2023-04-25T07:19:52.554Z,4.97
2023-04-25T07:22:20.441Z,4.90
2023-04-25T07:24:49.964Z,4.57
2023-04-25T07:27:17.871Z,4.70
2023-04-25T07:29:45.725Z,4.40
2023-04-25T07:32:15.098Z,4.60
2023-04-25T07:34:43.181Z,4.63
2023-04-25T07:37:11.464Z,4.03
2023-04-25T07:39:39.437Z,4.87
2023-04-25T07:42:09.578Z,4.40
2023-04-25T07:44:39.782Z,4.70
2023-04-25T07:47:09.121Z,4.57
2023-04-25T07:49:37.692Z,3.97
2023-04-25T07:52:07.181Z,3.70
2023-04-25T07:54:35.608Z,3.83
2023-04-25T07:57:04.433Z,4.03
2023-04-25T07:59:33.628Z,4.27
2023-04-25T08:02:02.301Z,4.03
2023-04-25T08:04:30.319Z,4.20
2023-04-25T08:06:58.307Z,4.40
2023-04-25T08:09:26.258Z,4.37
2023-04-25T08:11:54.406Z,5.40
2023-04-25T08:14:22.345Z,6.50
2023-04-25T08:16:51.534Z,5.73
2023-04-25T08:19:19.357Z,5.90
2023-04-25T08:21:47.206Z,6.30
2023-04-25T08:24:15.093Z,5.67
2023-04-25T08:26:43.095Z,5.50
2023-04-25T08:29:10.898Z,5.73
2023-04-25T08:31:39.135Z,5.33
2023-04-25T08:34:08.543Z,4.03
2023-04-25T08:36:39.692Z,3.57
2023-04-25T08:39:08.317Z,3.50
2023-04-25T08:41:36.557Z,3.40
2023-04-25T08:44:05.564Z,3.50
2023-04-25T08:46:34.294Z,3.47
2023-04-25T08:49:03.935Z,4.23
2023-04-25T08:51:34.805Z,4.60
2023-04-25T08:54:27.904Z,4.40
2023-04-25T08:57:02.943Z,4.80
2023-04-25T08:59:31.867Z,4.57
2023-04-25T09:02:00.063Z,4.07
2023-04-25T09:04:27.963Z,4.00
2023-04-25T09:06:57.324Z,3.90
2023-04-25T09:09:26.114Z,3.40
2023-04-25T09:11:56.649Z,3.37
2023-04-25T09:14:27.008Z,3.50
2023-04-25T09:17:03.448Z,3.10
2023-04-25T09:19:40.277Z,4.20
2023-04-25T09:22:10.900Z,4.80
2023-04-25T09:24:40.425Z,5.10
2023-04-25T09:27:09.228Z,5.93
2023-04-25T09:29:39.170Z,6.00
2023-04-25T09:32:14.067Z,5.63
2023-04-25T09:34:46.566Z,5.93
2023-04-25T09:37:20.006Z,6.43
2023-04-25T09:39:48.952Z,6.23
2023-04-25T09:42:17.849Z,6.40
2023-04-25T09:44:46.624Z,6.23
2023-04-25T09:47:17.492Z,6.47
2023-04-25T09:49:46.262Z,6.87
2023-04-25T09:52:18.837Z,6.47
2023-04-25T09:54:47.103Z,6.90
2023-04-25T09:57:16.979Z,7.40
2023-04-25T09:59:49.269Z,7.00
2023-04-25T10:02:20.040Z,7.90
2023-04-25T10:04:52.780Z,7.77
2023-04-25T10:07:26.781Z,8.40
2023-04-25T10:10:00.436Z,9.13
2023-04-25T10:12:28.841Z,8.23
2023-04-25T10:14:57.234Z,8.53
2023-04-25T10:17:25.946Z,9.43
2023-04-25T10:19:54.991Z,8.43
2023-04-25T10:22:33.198Z,9.23
2023-04-25T10:25:01.468Z,9.50
2023-04-25T10:27:29.866Z,9.03
2023-04-25T10:30:11.277Z,9.03
2023-04-25T10:32:39.694Z,9.27
2023-04-25T10:35:16.517Z,9.83
2023-04-25T10:38:05.806Z,9.60
2023-04-25T10:40:34.178Z,9.63
2023-04-25T10:43:36.393Z,9.67
2023-04-25T10:46:06.766Z,9.93
2023-04-25T10:48:36.616Z,9.67
2023-04-25T10:51:10.972Z,9.27
2023-04-25T10:53:40.371Z,9.40
2023-04-25T10:56:19.325Z,9.10
2023-04-25T10:58:48.715Z,8.60
2023-04-25T11:01:23.323Z,9.90
2023-04-25T11:03:51.898Z,9.57
2023-04-25T11:06:25.715Z,8.97
2023-04-25T11:08:54.914Z,9.30
2023-04-25T11:11:22.795Z,9.60
2023-04-25T11:13:51.666Z,9.37
2023-04-25T11:16:27.445Z,9.23
2023-04-25T11:18:59.098Z,9.60
2023-04-25T11:21:28.863Z,9.23
2023-04-25T11:23:58.706Z,9.13
2023-04-25T11:26:27.133Z,8.93
2023-04-25T11:28:59.567Z,7.80
2023-04-25T11:31:27.751Z,7.80
2023-04-25T11:33:56.913Z,8.20
2023-04-25T11:36:27.024Z,7.80
2023-04-25T11:38:55.837Z,7.67
2023-04-25T11:41:25.540Z,7.60
2023-04-25T11:43:55.539Z,7.83
2023-04-25T11:46:24.312Z,7.10
2023-04-25T11:48:53.340Z,7.67
2023-04-25T11:51:21.359Z,7.33
2023-04-25T11:53:49.134Z,7.60
2023-04-25T11:56:17.324Z,7.17
2023-04-25T11:58:59.889Z,7.10
2023-04-25T12:01:32.408Z,7.33
2023-04-25T12:04:14.233Z,6.27
2023-04-25T12:06:43.955Z,6.33
2023-04-25T12:09:14.279Z,6.30
2023-04-25T12:11:46.946Z,6.30
2023-04-25T12:14:25.216Z,6.07
2023-04-25T12:16:53.624Z,5.80
2023-04-25T12:19:22.760Z,5.77
2023-04-25T12:21:58.113Z,4.57
2023-04-25T12:24:28.698Z,4.20
2023-04-25T12:27:02.514Z,4.20
2023-04-25T12:29:41.926Z,4.13
2023-04-25T12:32:16.427Z,4.30
2023-04-25T12:34:44.585Z,4.20
2023-04-25T12:37:12.860Z,4.80
2023-04-25T12:39:40.879Z,4.20
2023-04-25T12:42:12.915Z,4.30
2023-04-25T12:44:42.752Z,4.40
2023-04-25T12:47:11.087Z,4.20
2023-04-25T12:49:39.073Z,4.43
2023-04-25T12:52:06.942Z,4.17
2023-04-25T12:54:34.936Z,4.23
2023-04-25T12:57:04.025Z,3.83
2023-04-25T12:59:32.402Z,4.17
2023-04-25T13:02:01.873Z,4.37
2023-04-25T13:04:29.957Z,4.37
2023-04-25T13:06:58.044Z,3.70
2023-04-25T13:09:26.059Z,4.47
2023-04-25T13:11:56.260Z,4.00
2023-04-25T13:14:26.414Z,4.17
2023-04-25T13:16:55.629Z,4.30
2023-04-25T13:19:25.126Z,4.60
2023-04-25T13:21:52.970Z,4.73
2023-04-25T13:24:21.142Z,4.17
2023-04-25T13:26:49.127Z,4.00
2023-04-25T13:29:16.915Z,4.17
2023-04-25T13:31:44.863Z,4.23
2023-04-25T13:34:13.652Z,4.77
2023-04-25T13:36:42.998Z,4.17
2023-04-25T13:39:12.406Z,3.40
2023-04-25T13:41:40.327Z,3.63
2023-04-25T13:44:08.559Z,3.90
2023-04-25T13:49:12.793Z,3.37
2023-04-25T13:51:43.767Z,3.83
2023-04-25T13:54:11.975Z,4.20
2023-04-25T13:56:39.839Z,3.30
2023-04-25T13:59:08.046Z,3.70
2023-04-25T14:01:36.746Z,3.50
2023-04-25T14:04:05.659Z,4.27
2023-04-25T14:06:34.186Z,3.77
2023-04-25T14:09:05.447Z,3.53
2023-04-25T14:11:33.407Z,3.47
2023-04-25T14:14:01.216Z,3.50
2023-04-25T14:16:29.644Z,3.90
2023-04-25T14:18:58.924Z,3.47
2023-04-25T14:21:28.007Z,3.77
2023-04-25T14:23:55.980Z,3.40
2023-04-25T14:26:25.342Z,3.87
2023-04-25T14:28:53.841Z,3.47
2023-04-25T14:31:22.262Z,3.10
2023-04-25T14:33:50.360Z,3.27
2023-04-25T14:36:18.917Z,3.07
2023-04-25T14:38:46.880Z,3.13
2023-04-25T14:41:14.960Z,3.70
2023-04-25T14:43:44.136Z,3.60
2023-04-25T14:46:13.266Z,3.50
2023-04-25T14:48:41.318Z,3.63
2023-04-25T14:51:09.369Z,3.50
2023-04-25T14:53:37.240Z,3.83
2023-04-25T14:56:06.156Z,3.43
2023-04-25T14:58:34.084Z,4.47
2023-04-25T15:01:03.706Z,3.93
2023-04-25T15:03:32.600Z,4.50
2023-04-25T15:06:00.745Z,4.30
2023-04-25T15:08:28.577Z,4.07
2023-04-25T15:10:56.508Z,4.20
2023-04-25T15:13:24.518Z,4.00
2023-04-25T15:15:55.042Z,4.40
2023-04-25T15:18:24.942Z,4.17
2023-04-25T15:20:54.090Z,4.57
2023-04-25T15:23:22.891Z,4.47
2023-04-25T15:25:53.515Z,3.67
2023-04-25T15:28:22.436Z,4.20
2023-04-25T15:30:51.511Z,6.00
2023-04-25T15:33:19.509Z,4.83
2023-04-25T15:35:48.781Z,4.80
2023-04-25T15:38:16.671Z,4.90
2023-04-25T15:40:44.889Z,4.97
2023-04-25T15:43:16.241Z,4.70
2023-04-25T15:45:45.517Z,5.37
2023-04-25T15:48:13.606Z,5.07
2023-04-25T15:50:42.392Z,4.77
2023-04-25T15:53:12.413Z,4.50
2023-04-25T15:55:40.942Z,5.27
2023-04-25T15:58:11.323Z,4.70
2023-04-25T16:00:40.371Z,4.87
2023-04-25T16:03:09.593Z,4.57
2023-04-25T16:05:38.592Z,4.40
2023-04-25T16:08:06.482Z,5.07
2023-04-25T16:10:35.710Z,3.50
2023-04-25T16:13:03.946Z,4.23
2023-04-25T16:15:34.587Z,4.43
2023-04-25T16:18:03.343Z,3.97
2023-04-25T16:20:31.381Z,4.37
2023-04-25T16:22:59.251Z,4.10
2023-04-25T16:25:27.656Z,4.10
2023-04-25T16:27:57.216Z,4.37
2023-04-25T16:30:25.638Z,3.83
2023-04-25T16:32:53.568Z,4.60
2023-04-25T16:35:21.719Z,4.47
2023-04-25T16:37:49.623Z,3.70
2023-04-25T16:40:17.522Z,4.10
2023-04-25T16:42:45.407Z,4.13
2023-04-25T16:45:16.912Z,3.90
2023-04-25T16:47:45.056Z,3.83
2023-04-25T16:50:15.309Z,3.77
2023-04-25T16:52:44.602Z,3.70
2023-04-25T16:55:12.765Z,3.90
2023-04-25T16:57:40.661Z,3.93
2023-04-25T17:00:13.015Z,3.50
2023-04-25T17:02:42.462Z,3.63
2023-04-25T17:05:10.678Z,4.37
2023-04-25T17:07:38.612Z,4.40
2023-04-25T17:10:07.130Z,4.53
2023-04-25T17:12:35.022Z,3.90
2023-04-25T17:15:03.001Z,5.10
2023-04-25T17:17:31.058Z,4.27
2023-04-25T17:20:00.528Z,4.60
2023-04-25T17:22:28.624Z,4.47
2023-04-25T17:24:56.732Z,4.33
2023-04-25T17:27:24.671Z,4.63
2023-04-25T17:29:52.631Z,4.63
2023-04-25T17:32:20.682Z,4.80
2023-04-25T17:34:48.820Z,4.63
2023-04-25T17:37:18.772Z,4.60
2023-04-25T17:39:46.930Z,4.20
2023-04-25T17:42:15.143Z,4.70
2023-04-25T17:44:43.470Z,4.90
2023-04-25T17:47:11.663Z,4.60
2023-04-25T17:49:39.967Z,6.20
2023-04-25T17:52:07.846Z,4.73
2023-04-25T17:54:37.241Z,4.83
2023-04-25T17:57:05.558Z,4.87
2023-04-25T17:59:33.484Z,4.87
2023-04-25T18:02:01.745Z,4.37
2023-04-25T18:04:29.890Z,5.00
2023-04-25T18:06:58.221Z,4.60
2023-04-25T18:09:26.037Z,4.97
2023-04-25T18:11:55.689Z,5.23
2023-04-25T18:14:24.873Z,5.37
2023-04-25T18:16:53.720Z,5.37
2023-04-25T18:19:22.699Z,5.00
2023-04-25T18:21:52.170Z,5.60
2023-04-25T18:24:21.142Z,4.50
2023-04-25T18:26:50.038Z,5.00
2023-04-25T18:29:32.036Z,5.50
2023-04-25T18:32:01.575Z,5.20
2023-04-25T18:34:29.559Z,5.77
2023-04-25T18:36:57.992Z,5.63
2023-04-25T18:39:26.290Z,5.50
2023-04-25T18:42:00.118Z,5.50
2023-04-25T18:44:35.630Z,5.63
2023-04-25T18:47:03.531Z,6.13
2023-04-25T18:49:32.446Z,5.37
2023-04-25T18:52:00.960Z,4.97
2023-04-25T18:54:28.783Z,5.57
2023-04-25T18:56:57.536Z,5.27
2023-04-25T18:59:26.360Z,5.10
2023-04-25T19:01:55.906Z,5.53
2023-04-25T19:04:23.918Z,5.53
2023-04-25T19:06:52.203Z,6.50
2023-04-25T19:09:20.076Z,5.83
2023-04-25T19:11:47.902Z,5.67
2023-04-25T19:14:16.165Z,6.27
2023-04-25T19:16:44.118Z,6.07
2023-04-25T19:19:13.702Z,5.70
2023-04-25T19:21:42.457Z,5.60
2023-04-25T19:24:11.186Z,5.70
2023-04-25T19:26:39.392Z,5.73
2023-04-25T19:29:12.298Z,5.90
2023-04-25T19:31:41.855Z,5.67
2023-04-25T19:34:10.370Z,5.73
2023-04-25T19:36:41.006Z,6.07
2023-04-25T19:39:09.075Z,6.13
2023-04-25T19:41:39.259Z,6.27
2023-04-25T19:44:08.850Z,5.80
2023-04-25T19:46:38.338Z,6.27
2023-04-25T19:49:07.848Z,6.30
2023-04-25T19:51:37.373Z,7.60
2023-04-25T19:54:07.277Z,6.17
2023-04-25T19:56:35.358Z,6.17
2023-04-25T19:59:03.334Z,6.00
2023-04-25T20:01:31.638Z,6.33
2023-04-25T20:03:59.651Z,6.60
2023-04-25T20:06:29.045Z,6.13
2023-04-25T20:08:57.484Z,5.97
2023-04-25T20:11:28.649Z,6.03
2023-04-25T20:13:57.091Z,6.70
2023-04-25T20:16:25.163Z,6.73
2023-04-25T20:18:54.358Z,6.00
2023-04-25T20:21:23.537Z,6.10
2023-04-25T20:23:51.916Z,6.50
2023-04-25T20:26:22.126Z,5.90
2023-04-25T20:28:52.417Z,6.33
2023-04-25T20:31:20.897Z,6.00
2023-04-25T20:33:49.226Z,5.90
2023-04-25T20:36:17.212Z,6.60
2023-04-25T20:38:45.096Z,5.60
2023-04-25T20:41:13.528Z,5.83
2023-04-25T20:43:42.304Z,6.20
2023-04-25T20:46:12.666Z,6.20
2023-04-25T20:48:40.536Z,5.40
2023-04-25T20:51:08.937Z,6.20
2023-04-25T20:53:36.777Z,5.23
2023-04-25T20:56:06.483Z,5.93
2023-04-25T20:58:34.964Z,5.70
2023-04-25T21:01:04.363Z,5.27
2023-04-25T21:03:34.052Z,5.10
2023-04-25T21:06:02.097Z,4.37
2023-04-25T21:08:30.011Z,4.43
2023-04-25T21:10:57.930Z,4.87
2023-04-25T21:13:27.288Z,5.37
2023-04-25T21:15:55.239Z,5.27
2023-04-25T21:18:23.166Z,4.87
2023-04-25T21:20:52.376Z,5.53
2023-04-25T21:23:20.565Z,6.00
2023-04-25T21:25:51.088Z,6.63
2023-04-25T21:28:19.406Z,6.00
2023-04-25T21:30:47.911Z,6.37
2023-04-25T21:33:16.337Z,6.33
2023-04-25T21:35:44.312Z,7.27
2023-04-25T21:38:14.671Z,7.83
2023-04-25T21:40:42.766Z,7.10
2023-04-25T21:43:10.959Z,6.93
2023-04-25T21:45:53.782Z,7.93
2023-04-25T21:48:27.210Z,7.20
2023-04-25T21:50:56.326Z,8.10
2023-04-25T21:53:26.929Z,8.73
2023-04-25T21:55:54.815Z,7.93
2023-04-25T21:58:22.689Z,8.27
2023-04-25T22:00:50.784Z,8.53
2023-04-25T22:03:20.405Z,8.20
2023-04-25T22:05:48.634Z,8.37
2023-04-25T22:08:17.510Z,8.20
2023-04-25T22:10:46.780Z,8.30
2023-04-25T22:13:15.392Z,7.53
2023-04-25T22:15:43.378Z,6.80
2023-04-25T22:18:13.154Z,6.50
2023-04-25T22:20:41.324Z,5.63
2023-04-25T22:23:09.612Z,5.50
2023-04-25T22:25:37.688Z,4.83
2023-04-25T22:28:07.034Z,5.03
2023-04-25T22:30:35.060Z,5.10
2023-04-25T22:33:02.950Z,4.70
2023-04-25T22:35:30.704Z,4.70
2023-04-25T22:37:59.077Z,4.63
2023-04-25T22:40:27.322Z,4.23
2023-04-25T22:42:55.303Z,3.97
2023-04-25T22:45:24.625Z,4.07
2023-04-25T22:47:53.490Z,3.70
2023-04-25T22:50:21.655Z,3.93
2023-04-25T22:52:49.599Z,4.20
2023-04-25T22:55:17.508Z,3.50
2023-04-25T22:57:45.414Z,4.10
2023-04-25T23:00:20.070Z,3.40
2023-04-25T23:02:50.425Z,3.97
2023-04-25T23:05:19.061Z,3.60
2023-04-25T23:07:47.039Z,3.07
2023-04-25T23:10:14.950Z,3.40
2023-04-25T23:12:43.133Z,3.80
2023-04-25T23:15:13.258Z,3.73
2023-04-25T23:17:42.114Z,3.40
2023-04-25T23:20:12.680Z,3.70
2023-04-25T23:22:40.805Z,3.87
2023-04-25T23:25:10.301Z,3.80
2023-04-25T23:27:38.587Z,3.90
2023-04-25T23:30:08.883Z,3.70
2023-04-25T23:32:37.052Z,3.93
2023-04-25T23:35:06.070Z,4.17
2023-04-25T23:37:37.159Z,3.83
2023-04-25T23:40:08.564Z,4.00
2023-04-25T23:42:36.733Z,3.73
2023-04-25T23:45:06.113Z,3.50
2023-04-25T23:47:34.109Z,4.30
2023-04-25T23:50:02.197Z,3.70
2023-04-25T23:52:30.050Z,4.00
2023-04-25T23:54:59.353Z,3.60
2023-04-25T23:57:27.270Z,3.93
2023-04-25T23:59:55.094Z,3.33
